createdAt,value
2022-10-02T00:00:08.161Z,99992.19
2022-10-02T00:02:35.231Z,100001.25
2022-10-02T00:05:00.214Z,99984.28
2022-10-02T00:07:27.100Z,99995.69
2022-10-02T00:09:51.941Z,99997.00
2022-10-02T00:12:16.365Z,99996.16
2022-10-02T00:14:41.575Z,100001.69
2022-10-02T00:17:04.751Z,99989.09
2022-10-02T00:19:28.017Z,99999.50
2022-10-02T00:22:08.646Z,99984.06
2022-10-02T00:24:33.849Z,99968.56
2022-10-02T00:26:59.912Z,99970.41
2022-10-02T00:29:33.244Z,99967.88
2022-10-02T00:32:04.171Z,99975.56
2022-10-02T00:34:32.705Z,99986.44
2022-10-02T00:36:59.948Z,99993.78
2022-10-02T00:39:30.030Z,99990.59
2022-10-02T00:42:18.914Z,99988.13
2022-10-02T00:44:49.435Z,99997.38
2022-10-02T00:47:15.555Z,99992.97
2022-10-02T00:49:45.841Z,99995.34
2022-10-02T00:52:20.650Z,100009.31
2022-10-02T00:55:11.397Z,100011.47
2022-10-02T00:57:42.500Z,100034.13
2022-10-02T01:00:07.378Z,100044.84
2022-10-02T01:03:17.185Z,100026.56
2022-10-02T01:05:40.432Z,100024.25
2022-10-02T01:08:03.586Z,100049.50
2022-10-02T01:10:26.787Z,100027.28
2022-10-02T01:12:50.033Z,100042.06
2022-10-02T01:15:14.315Z,100046.59
2022-10-02T01:17:37.566Z,100048.13
2022-10-02T01:20:04.580Z,100052.94
2022-10-02T01:22:31.349Z,100057.03
2022-10-02T01:24:56.032Z,100065.53
2022-10-02T01:27:19.352Z,100066.25
2022-10-02T01:29:42.888Z,100070.59
2022-10-02T01:32:06.051Z,100052.41
2022-10-02T01:34:29.345Z,100047.25
2022-10-02T01:36:52.543Z,100031.63
2022-10-02T01:39:15.765Z,100041.22
2022-10-02T01:41:42.461Z,100055.41
2022-10-02T01:44:05.677Z,100067.06
2022-10-02T01:46:32.836Z,100062.09
2022-10-02T01:49:00.132Z,100086.59
2022-10-02T01:51:34.501Z,100085.13
2022-10-02T01:54:02.954Z,100091.13
2022-10-02T01:56:31.457Z,100089.38
2022-10-02T01:59:00.747Z,100074.34
2022-10-02T02:01:31.091Z,100066.69
2022-10-02T02:03:55.848Z,100064.84
2022-10-02T02:06:22.382Z,100060.63
2022-10-02T02:08:47.781Z,100034.06
2022-10-02T02:11:12.612Z,100037.91
2022-10-02T02:13:37.211Z,100031.88
2022-10-02T02:16:02.657Z,100012.19
2022-10-02T02:18:28.815Z,100026.56
2022-10-02T02:20:53.149Z,100014.13
2022-10-02T02:23:17.765Z,99986.28
2022-10-02T02:25:41.936Z,99976.00
2022-10-02T02:28:07.620Z,99957.44
2022-10-02T02:30:31.735Z,99945.81
2022-10-02T02:32:58.416Z,99938.09
2022-10-02T02:35:24.975Z,99914.16
2022-10-02T02:37:48.153Z,99897.56
2022-10-02T02:40:13.021Z,99864.19
2022-10-02T02:42:39.079Z,99864.25
2022-10-02T02:45:04.494Z,99877.00
2022-10-02T02:47:28.843Z,99880.72
2022-10-02T02:49:54.911Z,99853.56
2022-10-02T02:52:19.701Z,99858.16
2022-10-02T02:54:44.573Z,99873.66
2022-10-02T02:57:07.883Z,99882.69
2022-10-02T02:59:31.478Z,99904.94
2022-10-02T03:01:54.983Z,99931.88
2022-10-02T03:04:18.142Z,99947.44
2022-10-02T03:06:43.094Z,99978.13
2022-10-02T03:09:06.457Z,99980.19
2022-10-02T03:11:37.309Z,99989.22
2022-10-02T03:14:04.815Z,99997.00
2022-10-02T03:16:39.696Z,100000.09
2022-10-02T03:19:11.574Z,99990.13
2022-10-02T03:21:36.792Z,99987.97
2022-10-02T03:24:04.867Z,99978.97
2022-10-02T03:26:32.103Z,99981.66
2022-10-02T03:28:57.053Z,99977.06
2022-10-02T03:31:20.677Z,99986.03
2022-10-02T03:33:43.909Z,99991.25
2022-10-02T03:36:07.350Z,99992.88
2022-10-02T03:38:30.518Z,99976.78
2022-10-02T03:40:58.235Z,99976.22
2022-10-02T03:43:22.555Z,99977.13
2022-10-02T03:45:51.440Z,99979.75
2022-10-02T03:48:15.178Z,99987.81
2022-10-02T03:50:38.434Z,99990.38
2022-10-02T03:53:01.552Z,100008.44
2022-10-02T03:55:32.443Z,100022.03
2022-10-02T03:57:57.000Z,100032.19
2022-10-02T04:00:22.213Z,100016.69
2022-10-02T04:02:48.128Z,100044.00
2022-10-02T04:05:16.406Z,100053.50
2022-10-02T04:07:41.059Z,100079.56
2022-10-02T04:10:10.948Z,100089.16
2022-10-02T04:12:35.514Z,100107.94
2022-10-02T04:15:02.029Z,100103.38
2022-10-02T04:17:26.404Z,100099.22
2022-10-02T04:19:50.135Z,100086.88
2022-10-02T04:22:15.447Z,100080.94
2022-10-02T04:24:41.070Z,100056.78
2022-10-02T04:27:06.276Z,100061.56
2022-10-02T04:29:33.171Z,100049.81
2022-10-02T04:32:01.577Z,100052.41
2022-10-02T04:34:24.755Z,100057.69
2022-10-02T04:36:57.867Z,100053.69
2022-10-02T04:39:30.963Z,100046.94
2022-10-02T04:42:04.504Z,100054.00
2022-10-02T04:44:38.185Z,100062.50
2022-10-02T04:47:23.274Z,100061.31
2022-10-02T04:49:54.275Z,100063.59
2022-10-02T04:52:28.510Z,100073.72
2022-10-02T04:54:59.427Z,100073.19
2022-10-02T04:57:29.373Z,100088.72
2022-10-02T05:00:09.088Z,100086.53
2022-10-02T05:03:03.779Z,100096.22
2022-10-02T05:05:32.993Z,100104.56
2022-10-02T05:08:27.449Z,100108.88
2022-10-02T05:11:00.570Z,100101.28
2022-10-02T05:13:32.130Z,100111.63
2022-10-02T05:16:09.747Z,100099.38
2022-10-02T05:18:49.067Z,100093.53
2022-10-02T05:21:19.007Z,100085.38
2022-10-02T05:23:49.921Z,100075.06
2022-10-02T05:26:21.911Z,100080.72
2022-10-02T05:29:08.532Z,100086.69
2022-10-02T05:31:37.393Z,100086.09
2022-10-02T05:34:10.861Z,100081.00
2022-10-02T05:36:44.277Z,100075.66
2022-10-02T05:39:08.795Z,100071.78
2022-10-02T05:41:36.886Z,100066.97
2022-10-02T05:44:02.674Z,100056.53
2022-10-02T05:46:26.717Z,100048.03
2022-10-02T05:48:53.530Z,100059.28
2022-10-02T05:51:22.131Z,100045.44
2022-10-02T05:53:46.687Z,100053.09
2022-10-02T05:56:11.550Z,100054.41
2022-10-02T05:58:35.410Z,100078.09
2022-10-02T06:01:00.635Z,100071.91
2022-10-02T06:03:26.449Z,100069.97
2022-10-02T06:05:55.232Z,100083.50
2022-10-02T06:08:23.083Z,100050.50
2022-10-02T06:10:47.691Z,100055.00
2022-10-02T06:13:13.819Z,100053.19
2022-10-02T06:15:39.944Z,100036.66
2022-10-02T06:18:05.381Z,100083.38
2022-10-02T06:20:30.427Z,100073.06
2022-10-02T06:22:56.158Z,100026.63
2022-10-02T06:25:24.305Z,100040.75
2022-10-02T06:27:48.910Z,100038.22
2022-10-02T06:30:13.881Z,100044.31
2022-10-02T06:32:39.195Z,100050.75
2022-10-02T06:35:02.385Z,100035.25
2022-10-02T06:37:38.046Z,100032.88
2022-10-02T06:40:09.510Z,100056.16
2022-10-02T06:42:40.365Z,100044.88
2022-10-02T06:45:06.796Z,100078.59
2022-10-02T06:47:35.570Z,100037.44
2022-10-02T06:50:08.080Z,100045.88
2022-10-02T06:52:38.014Z,100070.59
2022-10-02T06:55:09.287Z,100069.88
2022-10-02T06:57:45.740Z,100052.81
2022-10-02T07:00:16.362Z,100051.25
2022-10-02T07:03:08.306Z,100070.28
2022-10-02T07:05:56.519Z,100045.19
2022-10-02T07:08:23.641Z,100037.84
2022-10-02T07:10:48.315Z,100023.63
2022-10-02T07:13:21.353Z,100019.16
2022-10-02T07:15:53.704Z,100034.78
2022-10-02T07:18:19.801Z,100048.91
2022-10-02T07:20:46.952Z,100041.84
2022-10-02T07:23:18.978Z,100041.94
2022-10-02T07:25:49.778Z,100034.75
2022-10-02T07:28:15.256Z,100026.56
2022-10-02T07:30:43.519Z,100035.91
2022-10-02T07:33:08.973Z,100052.09
2022-10-02T07:35:39.867Z,100062.06
2022-10-02T07:38:24.198Z,100051.34
2022-10-02T07:40:51.970Z,100033.59
2022-10-02T07:43:25.458Z,100045.84
2022-10-02T07:45:51.465Z,100052.44
2022-10-02T07:48:37.870Z,100039.75
2022-10-02T07:51:04.556Z,100064.97
2022-10-02T07:53:31.062Z,100051.72
2022-10-02T07:55:54.683Z,100064.13
2022-10-02T07:58:20.181Z,100051.00
2022-10-02T08:00:46.799Z,100084.88
2022-10-02T08:03:14.155Z,100080.59
2022-10-02T08:05:40.559Z,100069.88
2022-10-02T08:08:05.095Z,100067.09
2022-10-02T08:10:29.870Z,100058.34
2022-10-02T08:12:57.295Z,100085.16
2022-10-02T08:15:20.975Z,100075.59
2022-10-02T08:17:46.810Z,100089.69
2022-10-02T08:20:16.512Z,100065.44
2022-10-02T08:22:40.504Z,100055.50
2022-10-02T08:25:08.065Z,100054.03
2022-10-02T08:27:45.690Z,100044.84
2022-10-02T08:30:09.988Z,100047.13
2022-10-02T08:32:34.939Z,100061.78
2022-10-02T08:34:58.777Z,100089.88
2022-10-02T08:37:30.355Z,100066.97
2022-10-02T08:40:29.530Z,100085.75
2022-10-02T08:43:31.789Z,100080.38
2022-10-02T08:46:45.595Z,100083.44
2022-10-02T08:49:38.515Z,100069.91
2022-10-02T08:52:34.720Z,100095.97
2022-10-02T08:55:33.324Z,100069.94
2022-10-02T08:58:15.341Z,100081.19
2022-10-02T09:00:43.222Z,100075.13
2022-10-02T09:03:45.864Z,100070.75
2022-10-02T09:06:47.275Z,100089.97
2022-10-02T09:09:54.571Z,100101.53
2022-10-02T09:12:42.871Z,100078.34
2022-10-02T09:15:15.723Z,100076.66
2022-10-02T09:17:46.525Z,100087.34
2022-10-02T09:20:37.577Z,100110.50
2022-10-02T09:23:42.905Z,100100.06
2022-10-02T09:26:14.159Z,100094.13
2022-10-02T09:29:34.649Z,100116.00
2022-10-02T09:32:34.735Z,100112.72
2022-10-02T09:35:18.968Z,100116.06
2022-10-02T09:37:56.348Z,100136.13
2022-10-02T09:41:00.299Z,100145.19
2022-10-02T09:44:14.194Z,100133.13
2022-10-02T09:47:24.715Z,100124.78
2022-10-02T09:50:36.344Z,100109.88
2022-10-02T09:53:41.517Z,100114.63
2022-10-02T09:56:34.850Z,100102.03
2022-10-02T09:59:46.535Z,100097.53
2022-10-02T10:02:37.357Z,100123.69
2022-10-02T10:05:38.264Z,100115.63
2022-10-02T10:08:13.373Z,100108.28
2022-10-02T10:11:04.021Z,100177.13
2022-10-02T10:14:00.596Z,100122.69
2022-10-02T10:16:55.917Z,100122.69
2022-10-02T10:19:45.385Z,100105.06
2022-10-02T10:22:31.370Z,100131.75
2022-10-02T10:25:03.651Z,100132.47
2022-10-02T10:27:38.825Z,100143.19
2022-10-02T10:30:13.254Z,100180.47
2022-10-02T10:33:10.092Z,100165.06
2022-10-02T10:35:58.259Z,100149.94
2022-10-02T10:38:49.652Z,100158.16
2022-10-02T10:41:58.926Z,100148.25
2022-10-02T10:44:47.183Z,100182.72
2022-10-02T10:47:43.587Z,100207.03
2022-10-02T10:50:24.008Z,100131.81
2022-10-02T10:53:08.432Z,100172.81
2022-10-02T10:55:35.624Z,100159.84
2022-10-02T10:58:04.702Z,100175.75
2022-10-02T11:00:28.190Z,100194.72
2022-10-02T11:03:20.106Z,100187.41
2022-10-02T11:06:30.122Z,100196.53
2022-10-02T11:09:26.544Z,100191.03
2022-10-02T11:11:58.665Z,100227.00
2022-10-02T11:14:27.578Z,100199.91
2022-10-02T11:17:35.518Z,100242.75
2022-10-02T11:20:07.231Z,100172.88
2022-10-02T11:23:05.626Z,100169.84
2022-10-02T11:25:54.341Z,100153.47
2022-10-02T11:28:51.286Z,100169.59
2022-10-02T11:31:26.108Z,100160.84
2022-10-02T11:33:56.491Z,100211.75
2022-10-02T11:36:41.739Z,100181.19
2022-10-02T11:39:06.986Z,100158.47
2022-10-02T11:41:47.480Z,100169.75
2022-10-02T11:44:14.193Z,100148.69
2022-10-02T11:46:52.697Z,100181.88
2022-10-02T11:49:46.340Z,100180.19
2022-10-02T11:52:20.982Z,100140.66
2022-10-02T11:54:53.210Z,100210.13
2022-10-02T11:57:23.488Z,100222.03
2022-10-02T12:00:14.881Z,100191.63
2022-10-02T12:02:39.392Z,100183.34
2022-10-02T12:05:06.020Z,100187.25
2022-10-02T12:07:36.992Z,100187.78
2022-10-02T12:10:07.910Z,100207.00
2022-10-02T12:12:37.928Z,100226.25
2022-10-02T12:15:02.813Z,100224.41
2022-10-02T12:17:53.249Z,100235.16
2022-10-02T12:20:36.502Z,100233.66
2022-10-02T12:23:21.175Z,100226.13
2022-10-02T12:26:05.199Z,100226.41
2022-10-02T12:28:32.863Z,100205.59
2022-10-02T12:31:01.317Z,100228.50
2022-10-02T12:33:28.456Z,100228.81
2022-10-02T12:35:58.996Z,100208.81
2022-10-02T12:38:28.673Z,100225.94
2022-10-02T12:40:56.536Z,100228.63
2022-10-02T12:43:39.291Z,100266.72
2022-10-02T12:46:14.329Z,100219.25
2022-10-02T12:49:02.175Z,100224.56
2022-10-02T12:51:35.639Z,100243.09
2022-10-02T12:54:45.115Z,100289.91
2022-10-02T12:57:56.268Z,100245.22
2022-10-02T13:00:20.020Z,100227.09
2022-10-02T13:03:20.290Z,100253.28
2022-10-02T13:06:19.515Z,100238.00
2022-10-02T13:09:06.076Z,100235.78
2022-10-02T13:11:34.484Z,100261.97
2022-10-02T13:14:12.937Z,100236.47
2022-10-02T13:16:58.231Z,100220.56
2022-10-02T13:19:21.989Z,100291.09
2022-10-02T13:21:51.151Z,100252.22
2022-10-02T13:24:25.827Z,100255.28
2022-10-02T13:26:52.030Z,100241.41
2022-10-02T13:29:25.795Z,100222.13
2022-10-02T13:31:59.038Z,100223.44
2022-10-02T13:34:39.626Z,100247.84
2022-10-02T13:37:15.466Z,100264.41
2022-10-02T13:39:50.198Z,100286.47
2022-10-02T13:42:23.570Z,100275.88
2022-10-02T13:44:50.874Z,100262.44
2022-10-02T13:47:24.560Z,100261.00
2022-10-02T13:49:57.988Z,100305.53
2022-10-02T13:52:24.250Z,100289.31
2022-10-02T13:54:51.456Z,100266.66
2022-10-02T13:57:21.062Z,100284.91
2022-10-02T13:59:54.478Z,100292.53
2022-10-02T14:02:35.396Z,100321.56
2022-10-02T14:05:00.598Z,100327.25
2022-10-02T14:07:35.599Z,100334.88
2022-10-02T14:10:02.376Z,100327.00
2022-10-02T14:12:30.362Z,100350.19
2022-10-02T14:15:04.038Z,100302.34
2022-10-02T14:17:31.134Z,100307.41
2022-10-02T14:20:05.396Z,100313.09
2022-10-02T14:22:42.120Z,100320.19
2022-10-02T14:25:43.907Z,100310.09
2022-10-02T14:28:26.913Z,100322.69
2022-10-02T14:31:14.892Z,100324.56
2022-10-02T14:33:50.365Z,100320.72
2022-10-02T14:36:15.243Z,100306.16
2022-10-02T14:38:45.954Z,100327.66
2022-10-02T14:41:26.963Z,100313.34
2022-10-02T14:44:23.143Z,100355.13
2022-10-02T14:47:02.027Z,100321.16
2022-10-02T14:49:46.520Z,100320.47
2022-10-02T14:52:17.970Z,100310.56
2022-10-02T14:54:49.930Z,100323.84
2022-10-02T14:57:30.407Z,100328.25
2022-10-02T15:00:18.787Z,100331.06
2022-10-02T15:03:18.492Z,100314.81
2022-10-02T15:06:06.330Z,100313.63
2022-10-02T15:08:31.524Z,100310.94
2022-10-02T15:10:54.939Z,100307.88
2022-10-02T15:13:26.775Z,100306.03
2022-10-02T15:16:12.279Z,100298.81
2022-10-02T15:18:38.600Z,100315.69
2022-10-02T15:21:06.544Z,100307.81
2022-10-02T15:23:47.768Z,100298.75
2022-10-02T15:26:30.390Z,100307.81
2022-10-02T15:28:59.194Z,100314.16
2022-10-02T15:31:25.488Z,100313.59
2022-10-02T15:33:56.830Z,100336.34
2022-10-02T15:36:45.328Z,100336.91
2022-10-02T15:39:29.001Z,100354.72
2022-10-02T15:42:03.986Z,100356.84
2022-10-02T15:44:54.510Z,100349.94
2022-10-02T15:47:29.847Z,100346.25
2022-10-02T15:50:05.340Z,100349.84
2022-10-02T15:52:33.654Z,100341.22
2022-10-02T15:55:01.886Z,100355.75
2022-10-02T15:57:34.163Z,100356.63
2022-10-02T16:00:03.410Z,100363.16
2022-10-02T16:02:57.327Z,100373.50
2022-10-02T16:05:22.595Z,100371.66
2022-10-02T16:08:08.828Z,100360.06
2022-10-02T16:10:34.011Z,100374.06
2022-10-02T16:13:19.335Z,100391.56
2022-10-02T16:15:49.296Z,100382.81
2022-10-02T16:18:40.287Z,100393.03
2022-10-02T16:21:12.727Z,100397.69
2022-10-02T16:23:52.873Z,100395.00
2022-10-02T16:26:26.307Z,100413.97
2022-10-02T16:28:55.418Z,100403.63
2022-10-02T16:31:26.921Z,100420.56
2022-10-02T16:33:56.206Z,100415.66
2022-10-02T16:36:30.320Z,100409.16
2022-10-02T16:38:56.858Z,100430.91
2022-10-02T16:41:36.997Z,100438.97
2022-10-02T16:44:04.275Z,100431.59
2022-10-02T16:46:31.255Z,100448.44
2022-10-02T16:48:55.930Z,100458.63
2022-10-02T16:51:38.134Z,100449.47
2022-10-02T16:54:05.964Z,100461.03
2022-10-02T16:56:32.433Z,100459.19
2022-10-02T16:59:01.262Z,100490.44
2022-10-02T17:01:27.835Z,100469.09
2022-10-02T17:04:24.733Z,100450.59
2022-10-02T17:06:49.827Z,100461.72
2022-10-02T17:09:17.181Z,100465.84
2022-10-02T17:11:47.472Z,100472.19
2022-10-02T17:14:16.521Z,100467.81
2022-10-02T17:16:41.969Z,100483.81
2022-10-02T17:19:18.140Z,100475.88
2022-10-02T17:21:44.572Z,100485.78
2022-10-02T17:24:32.582Z,100486.06
2022-10-02T17:27:02.012Z,100490.03
2022-10-02T17:29:27.858Z,100486.63
2022-10-02T17:31:52.696Z,100485.50
2022-10-02T17:34:21.257Z,100485.22
2022-10-02T17:36:47.829Z,100479.69
2022-10-02T17:39:20.586Z,100495.69
2022-10-02T17:41:48.844Z,100502.44
2022-10-02T17:44:18.641Z,100489.03
2022-10-02T17:46:51.190Z,100488.56
2022-10-02T17:49:18.342Z,100494.28
2022-10-02T17:51:53.106Z,100510.97
2022-10-02T17:54:43.858Z,100516.47
2022-10-02T17:57:17.699Z,100505.88
2022-10-02T18:00:09.793Z,100503.63
2022-10-02T18:02:58.850Z,100502.47
2022-10-02T18:05:28.401Z,100499.38
2022-10-02T18:07:59.961Z,100499.09
2022-10-02T18:10:26.015Z,100488.38
2022-10-02T18:13:03.404Z,100483.13
2022-10-02T18:15:51.841Z,100493.31
2022-10-02T18:18:25.461Z,100492.97
2022-10-02T18:20:57.192Z,100494.13
2022-10-02T18:23:34.036Z,100487.81
2022-10-02T18:26:03.165Z,100483.09
2022-10-02T18:28:35.954Z,100494.25
2022-10-02T18:31:03.814Z,100503.03
2022-10-02T18:33:43.672Z,100493.97
2022-10-02T18:36:14.347Z,100499.47
2022-10-02T18:38:46.883Z,100499.50
2022-10-02T18:41:19.906Z,100494.25
2022-10-02T18:43:53.283Z,100502.19
2022-10-02T18:46:21.965Z,100507.13
2022-10-02T18:49:07.855Z,100515.03
2022-10-02T18:52:13.444Z,100513.59
2022-10-02T18:54:42.660Z,100513.59
2022-10-02T18:57:17.208Z,100509.06
2022-10-02T18:59:49.974Z,100504.28
2022-10-02T19:02:20.730Z,100508.66
2022-10-02T19:05:10.045Z,100510.63
2022-10-02T19:07:39.210Z,100506.53
2022-10-02T19:10:26.250Z,100512.91
2022-10-02T19:12:49.602Z,100506.84
2022-10-02T19:15:21.602Z,100500.75
2022-10-02T19:17:44.787Z,100517.56
2022-10-02T19:20:29.311Z,100517.41
2022-10-02T19:22:52.589Z,100512.91
2022-10-02T19:25:16.869Z,100509.06
2022-10-02T19:27:40.490Z,100517.41
2022-10-02T19:30:06.748Z,100518.25
2022-10-02T19:32:32.180Z,100515.28
2022-10-02T19:34:59.908Z,100528.44
2022-10-02T19:37:23.389Z,100526.13
2022-10-02T19:39:50.354Z,100529.38
2022-10-02T19:42:16.301Z,100534.38
2022-10-02T19:44:40.413Z,100523.47
2022-10-02T19:47:04.666Z,100525.56
2022-10-02T19:49:30.586Z,100518.53
2022-10-02T19:51:54.909Z,100503.84
2022-10-02T19:54:20.988Z,100505.94
2022-10-02T19:56:44.889Z,100507.19
2022-10-02T19:59:11.644Z,100503.78
2022-10-02T20:01:40.688Z,100506.47
2022-10-02T20:04:03.994Z,100509.59
2022-10-02T20:06:30.207Z,100514.84
2022-10-02T20:08:56.225Z,100516.38
2022-10-02T20:11:20.867Z,100536.56
2022-10-02T20:13:45.710Z,100530.94
2022-10-02T20:16:31.740Z,100531.22
2022-10-02T20:18:54.983Z,100537.63
2022-10-02T20:21:20.057Z,100529.13
2022-10-02T20:23:46.543Z,100529.97
2022-10-02T20:26:10.021Z,100525.72
2022-10-02T20:28:35.751Z,100540.00
2022-10-02T20:31:02.188Z,100533.03
2022-10-02T20:33:27.278Z,100533.78
2022-10-02T20:35:52.054Z,100523.72
2022-10-02T20:38:17.617Z,100532.81
2022-10-02T20:40:43.350Z,100540.59
2022-10-02T20:43:07.853Z,100537.47
2022-10-02T20:45:33.541Z,100527.13
2022-10-02T20:48:06.934Z,100518.22
2022-10-02T20:50:40.564Z,100511.75
2022-10-02T20:53:39.583Z,100518.34
2022-10-02T20:56:09.001Z,100511.41
2022-10-02T20:59:02.011Z,100513.38
2022-10-02T21:01:29.965Z,100516.47
2022-10-02T21:04:05.698Z,100511.59
2022-10-02T21:06:43.940Z,100510.06
2022-10-02T21:09:28.883Z,100518.16
2022-10-02T21:12:18.348Z,100514.19
2022-10-02T21:14:53.286Z,100524.66
2022-10-02T21:17:31.130Z,100524.25
2022-10-02T21:20:09.057Z,100508.56
2022-10-02T21:22:57.558Z,100517.31
2022-10-02T21:25:59.237Z,100518.28
2022-10-02T21:28:55.960Z,100516.47
2022-10-02T21:31:34.545Z,100510.66
2022-10-02T21:34:03.458Z,100534.41
2022-10-02T21:36:31.342Z,100529.94
2022-10-02T21:39:07.875Z,100531.59
2022-10-02T21:42:14.525Z,100533.03
2022-10-02T21:45:23.921Z,100541.72
2022-10-02T21:48:46.870Z,100538.88
2022-10-02T21:51:26.598Z,100531.44
2022-10-02T21:54:43.570Z,100532.50
2022-10-02T21:57:33.457Z,100531.56
2022-10-02T22:00:13.027Z,100526.03
2022-10-02T22:02:51.914Z,100530.44
2022-10-02T22:05:46.815Z,100534.59
2022-10-02T22:08:14.472Z,100541.22
2022-10-02T22:10:42.678Z,100547.88
2022-10-02T22:13:15.375Z,100537.03
2022-10-02T22:15:43.067Z,100539.50
2022-10-02T22:18:10.288Z,100543.97
2022-10-02T22:20:42.469Z,100540.44
2022-10-02T22:23:15.887Z,100522.38
2022-10-02T22:25:46.793Z,100528.66
2022-10-02T22:28:17.299Z,100528.66
2022-10-02T22:30:44.481Z,100516.53
2022-10-02T22:33:29.821Z,100523.72
2022-10-02T22:36:04.498Z,100524.56
2022-10-02T22:38:29.465Z,100528.78
2022-10-02T22:40:53.610Z,100531.72
2022-10-02T22:43:20.669Z,100531.72
2022-10-02T22:45:45.590Z,100528.97
2022-10-02T22:48:10.334Z,100529.72
2022-10-02T22:50:35.968Z,100537.03
2022-10-02T22:53:03.528Z,100524.94
2022-10-02T22:55:29.280Z,100528.25
2022-10-02T22:57:54.184Z,100524.41
2022-10-02T23:00:18.508Z,100516.69
2022-10-02T23:02:45.845Z,100516.28
2022-10-02T23:05:12.101Z,100514.00
2022-10-02T23:07:38.043Z,100515.69
2022-10-02T23:10:05.143Z,100525.72
2022-10-02T23:12:38.099Z,100516.16
2022-10-02T23:15:04.949Z,100517.16
2022-10-02T23:17:30.304Z,100529.78
2022-10-02T23:19:55.790Z,100510.91
2022-10-02T23:22:23.944Z,100526.09
2022-10-02T23:24:48.108Z,100523.84
2022-10-02T23:27:14.890Z,100523.69
2022-10-02T23:29:44.274Z,100525.13
2022-10-02T23:32:14.682Z,100513.34
2022-10-02T23:34:41.133Z,100523.84
2022-10-02T23:37:07.066Z,100521.16
2022-10-02T23:39:31.808Z,100509.38
2022-10-02T23:41:55.679Z,100524.22
2022-10-02T23:44:25.881Z,100529.13
2022-10-02T23:47:03.195Z,100524.66
2022-10-02T23:49:27.927Z,100524.81
2022-10-02T23:51:55.371Z,100529.13
2022-10-02T23:54:30.257Z,100510.41
2022-10-02T23:57:06.405Z,100522.78
2022-10-02T23:59:44.849Z,100524.28
